Time;durP1;ratioP1;P1;durP2;ratioP2;P2;SDS_P1;SDS_P2;PMS_P1;PMS_P2;Temp;Humidity;BMP_temperature;BMP_pressure;BME280_temperature;BME280_humidity;BME280_pressure;Samples;Min_cycle;Max_cycle;Signal;HPM_P1;HPM_P2
2021/08/18 00:01:47;;;;;;;3.83;1.90;;;15.30;54.60;;;;;;4138309;28;20138;-49
2021/08/18 00:03:49;;;;;;;2.83;1.80;;;15.30;54.70;;;;;;4137210;28;20026;-45
2021/08/18 00:05:51;;;;;;;3.17;1.88;;;15.20;54.60;;;;;;4139186;28;20045;-48
2021/08/18 00:07:53;;;;;;;3.08;1.70;;;15.30;54.80;;;;;;4140965;28;20026;-46
2021/08/18 00:09:55;;;;;;;3.47;1.95;;;15.30;54.70;;;;;;4139691;28;20104;-45
2021/08/18 00:11:59;;;;;;;9.65;2.13;;;15.30;54.90;;;;;;4140916;28;20029;-46
2021/08/18 00:14:01;;;;;;;7.70;2.10;;;15.40;55.00;;;;;;4140352;28;20424;-47
2021/08/18 00:16:04;;;;;;;6.22;1.95;;;15.80;54.60;;;;;;4130045;28;20038;-44
2021/08/18 00:18:06;;;;;;;6.30;2.17;;;16.20;54.30;;;;;;4131573;28;20495;-44
2021/08/18 00:20:09;;;;;;;5.30;2.13;;;16.80;53.30;;;;;;4137845;28;20034;-44
2021/08/18 00:22:11;;;;;;;6.03;1.80;;;17.20;52.40;;;;;;4137901;28;20040;-49
2021/08/18 00:24:13;;;;;;;3.10;1.90;;;17.60;51.70;;;;;;4134433;28;20065;-49
2021/08/18 00:26:16;;;;;;;4.13;1.88;;;18.00;50.90;;;;;;4134880;28;20022;-48
2021/08/18 00:28:18;;;;;;;3.63;1.85;;;18.40;50.30;;;;;;4142939;28;20029;-48
2021/08/18 00:30:20;;;;;;;4.93;2.10;;;18.70;49.70;;;;;;4138347;28;20034;-56
2021/08/18 00:32:22;;;;;;;3.28;1.60;;;19.10;49.20;;;;;;4136247;28;20549;-57
2021/08/18 00:34:24;;;;;;;2.63;1.52;;;19.30;48.70;;;;;;4142635;28;20496;-56
2021/08/18 00:36:26;;;;;;;3.08;1.70;;;;;;;;;;4135116;28;20403;-58
2021/08/18 00:38:28;;;;;;;4.90;1.73;;;19.60;48.30;;;;;;4139236;28;20499;-56
2021/08/18 00:40:30;;;;;;;5.15;2.17;;;;;;;;;;4137564;28;20038;-54
2021/08/18 00:42:33;;;;;;;4.53;1.73;;;;;;;;;;4140796;28;20030;-58
2021/08/18 00:44:39;;;;;;;3.83;1.60;;;20.10;47.60;;;;;;4141950;28;20041;-58
2021/08/18 00:46:48;;;;;;;5.40;2.30;;;20.80;46.10;;;;;;4141467;28;20152;-60
2021/08/18 00:48:50;;;;;;;4.88;2.05;;;21.10;45.40;;;;;;4140400;28;20030;-57
2021/08/18 00:50:52;;;;;;;5.00;1.90;;;21.10;45.00;;;;;;4146356;28;20072;-59
2021/08/18 00:52:55;;;;;;;4.82;2.20;;;21.30;45.00;;;;;;4146198;28;20068;-59
2021/08/18 00:54:57;;;;;;;7.38;2.55;;;21.50;45.00;;;;;;4146512;28;20045;-54
2021/08/18 00:57:02;;;;;;;3.78;1.73;;;;;;;;;;4138929;28;20034;-57
2021/08/18 00:59:05;;;;;;;4.07;1.60;;;21.70;44.90;;;;;;4144186;28;20038;-59
2021/08/18 01:01:07;;;;;;;3.72;1.42;;;;;;;;;;4141140;28;20433;-53
2021/08/18 01:03:09;;;;;;;3.05;1.67;;;22.10;44.50;;;;;;4140131;28;20200;-56
2021/08/18 01:05:18;;;;;;;4.18;1.90;;;22.50;44.00;;;;;;4132235;28;20044;-54
2021/08/18 01:07:20;;;;;;;2.88;1.60;;;;;;;;;;4142691;28;20116;-53
2021/08/18 01:09:23;;;;;;;4.05;1.90;;;22.70;43.70;;;;;;4147223;28;20068;-56
2021/08/18 01:11:25;;;;;;;2.70;1.45;;;23.10;43.30;;;;;;4143438;28;20029;-56
2021/08/18 01:13:28;;;;;;;2.75;1.52;;;23.30;43.10;;;;;;4147108;28;20266;-57
2021/08/18 01:15:32;;;;;;;4.00;1.88;;;23.40;42.50;;;;;;4142651;28;20038;-57
2021/08/18 01:17:55;;;;;;;5.43;1.60;;;23.60;43.00;;;;;;4144239;28;20034;-58
2021/08/18 01:19:58;;;;;;;3.72;1.50;;;23.70;42.30;;;;;;4138079;28;20348;-57
2021/08/18 01:22:00;;;;;;;3.03;1.75;;;23.90;42.20;;;;;;4137218;28;20041;-53
2021/08/18 01:24:03;;;;;;;3.30;1.30;;;24.10;42.10;;;;;;4140645;28;20038;-58
2021/08/18 01:26:05;;;;;;;3.53;1.50;;;24.20;41.80;;;;;;4134606;28;20036;-60
2021/08/18 01:28:08;;;;;;;4.68;1.55;;;24.40;41.80;;;;;;4137184;28;20037;-56
2021/08/18 01:30:11;;;;;;;4.57;1.58;;;24.60;41.60;;;;;;4132849;28;20122;-57
2021/08/18 01:32:13;;;;;;;;;;;24.70;41.50;;;;;;4136071;28;20034;-55
2021/08/18 01:34:15;;;;;;;2.42;1.30;;;24.90;41.40;;;;;;4132208;28;19913;-54
2021/08/18 01:36:19;;;;;;;3.83;1.70;;;25.10;41.10;;;;;;4139313;28;20051;-54
2021/08/18 01:38:22;;;;;;;3.67;1.45;;;25.20;40.90;;;;;;4141647;28;20522;-56
2021/08/18 01:40:24;;;;;;;2.10;1.13;;;25.30;40.90;;;;;;4146381;28;20394;-56
2021/08/18 01:42:26;;;;;;;3.70;1.60;;;25.30;40.60;;;;;;4141305;28;20029;-57
2021/08/18 01:44:29;;;;;;;2.22;1.20;;;25.20;40.60;;;;;;4141427;28;20033;-57
2021/08/18 01:46:32;;;;;;;2.47;1.33;;;25.00;40.80;;;;;;4138419;28;20558;-55
2021/08/18 01:48:34;;;;;;;7.63;1.70;;;24.80;41.30;;;;;;4142438;28;20029;-57
2021/08/18 01:50:36;;;;;;;3.50;1.40;;;24.60;41.70;;;;;;4141500;28;20029;-57
2021/08/18 01:52:39;;;;;;;3.05;1.52;;;24.40;41.90;;;;;;4136071;28;20022;-52
2021/08/18 01:54:41;;;;;;;2.92;1.75;;;24.20;42.20;;;;;;4140169;28;20037;-57
2021/08/18 01:56:43;;;;;;;4.95;1.50;;;24.10;42.50;;;;;;4133505;28;20039;-52
2021/08/18 01:58:49;;;;;;;2.90;1.70;;;23.90;42.50;;;;;;4135472;28;20045;-57
2021/08/18 02:00:51;;;;;;;3.63;1.73;;;23.80;42.70;;;;;;4136366;28;20021;-53
2021/08/18 02:02:53;;;;;;;3.33;1.33;;;23.70;42.90;;;;;;4137335;28;20026;-52
2021/08/18 02:04:56;;;;;;;4.32;1.73;;;23.60;43.10;;;;;;4131877;28;20041;-53
2021/08/18 02:06:59;;;;;;;2.50;1.30;;;23.50;42.90;;;;;;4137326;28;20084;-54
2021/08/18 02:09:01;;;;;;;3.17;1.35;;;23.40;43.20;;;;;;4135464;28;20149;-55
2021/08/18 02:11:03;;;;;;;2.95;1.42;;;23.30;43.40;;;;;;4131450;28;20129;-57
2021/08/18 02:13:06;;;;;;;2.78;1.30;;;23.20;43.50;;;;;;4140336;28;20359;-55
2021/08/18 02:15:19;;;;;;;3.20;1.50;;;23.10;43.50;;;;;;4134992;28;20192;-56
2021/08/18 02:17:21;;;;;;;;;;;23.00;43.00;;;;;;4137425;28;20558;-56
2021/08/18 02:19:23;;;;;;;2.00;1.30;;;22.90;43.50;;;;;;4138351;28;20343;-55
2021/08/18 02:21:25;;;;;;;5.35;1.60;;;22.90;43.90;;;;;;4133877;28;20030;-56
2021/08/18 02:23:27;;;;;;;1.92;1.25;;;22.80;43.20;;;;;;4139647;28;20026;-53
2021/08/18 02:25:29;;;;;;;3.42;1.60;;;22.70;43.60;;;;;;4142541;28;20121;-56
2021/08/18 02:27:32;;;;;;;4.33;1.67;;;22.70;43.90;;;;;;4139068;28;20029;-51
2021/08/18 02:29:34;;;;;;;3.25;1.70;;;22.60;44.10;;;;;;4139082;28;20038;-54
2021/08/18 02:31:36;;;;;;;3.25;1.50;;;22.60;44.10;;;;;;4134746;28;20440;-52
2021/08/18 02:33:38;;;;;;;2.58;1.40;;;22.60;44.30;;;;;;4134908;28;20049;-55
2021/08/18 02:35:40;;;;;;;4.63;1.60;;;22.50;44.10;;;;;;4143396;28;20409;-56
2021/08/18 02:37:43;;;;;;;2.10;1.27;;;22.50;44.00;;;;;;4138341;28;20109;-56
2021/08/18 02:39:46;;;;;;;2.78;1.80;;;22.50;44.20;;;;;;4144733;28;20387;-56
2021/08/18 02:41:48;;;;;;;5.07;1.90;;;22.40;44.40;;;;;;4144503;28;20030;-53
2021/08/18 02:43:50;;;;;;;4.47;1.83;;;22.40;44.70;;;;;;4118233;28;20039;-59
2021/08/18 02:45:52;;;;;;;4.90;1.73;;;22.40;44.90;;;;;;4141592;28;20839;-56
2021/08/18 02:47:55;;;;;;;3.10;1.55;;;22.30;44.70;;;;;;4141373;28;20241;-54
2021/08/18 02:49:57;;;;;;;3.60;1.67;;;22.30;45.00;;;;;;4149304;28;20049;-56
2021/08/18 02:51:59;;;;;;;2.45;1.48;;;22.30;45.80;;;;;;4138864;28;20026;-54
2021/08/18 02:54:01;;;;;;;2.50;1.42;;;22.20;45.20;;;;;;4139134;28;20017;-53
2021/08/18 02:56:04;;;;;;;3.15;1.23;;;22.20;45.20;;;;;;4142233;28;20554;-55
2021/08/18 02:58:06;;;;;;;2.45;1.40;;;22.20;45.40;;;;;;4137890;28;20060;-55
2021/08/18 03:00:09;;;;;;;3.78;1.70;;;22.20;45.50;;;;;;4142434;28;20040;-59
2021/08/18 03:02:11;;;;;;;5.30;1.80;;;22.10;45.50;;;;;;4141790;28;20030;-53
2021/08/18 03:04:13;;;;;;;2.83;1.55;;;22.10;45.60;;;;;;4142010;28;20035;-57
2021/08/18 03:06:15;;;;;;;4.10;1.60;;;22.10;45.80;;;;;;4141357;28;20482;-57
2021/08/18 03:08:17;;;;;;;2.15;1.20;;;22.00;45.80;;;;;;4139492;28;20136;-55
2021/08/18 03:10:23;;;;;;;2.88;1.40;;;22.00;45.80;;;;;;4138660;28;20054;-57
2021/08/18 03:12:25;;;;;;;2.47;1.58;;;22.00;45.80;;;;;;4139920;28;20148;-55
2021/08/18 03:14:27;;;;;;;4.00;1.42;;;22.00;45.80;;;;;;4142216;28;20033;-49
2021/08/18 03:16:29;;;;;;;4.45;1.60;;;22.00;45.90;;;;;;4146214;28;20037;-56
2021/08/18 03:18:31;;;;;;;2.70;1.40;;;22.00;45.90;;;;;;4136987;28;20450;-56
2021/08/18 03:20:33;;;;;;;1.75;1.20;;;22.00;46.00;;;;;;4134095;28;20034;-53
2021/08/18 03:22:35;;;;;;;2.53;1.40;;;21.90;46.00;;;;;;4116223;28;20034;-50
2021/08/18 03:24:37;;;;;;;3.55;1.42;;;21.90;46.10;;;;;;4135477;28;20038;-55
2021/08/18 03:26:40;;;;;;;3.08;1.67;;;21.90;46.10;;;;;;4145934;28;20072;-59
2021/08/18 03:28:42;;;;;;;2.10;1.50;;;21.90;46.20;;;;;;4147684;28;20022;-57
2021/08/18 03:30:44;;;;;;;2.03;1.27;;;21.90;46.20;;;;;;4146314;28;20116;-54
2021/08/18 03:32:46;;;;;;;3.97;1.60;;;21.90;46.30;;;;;;4142146;28;20548;-55
2021/08/18 03:34:49;;;;;;;2.28;1.33;;;21.90;46.20;;;;;;4139715;28;20044;-55
2021/08/18 03:36:51;;;;;;;3.08;1.60;;;21.90;46.20;;;;;;4140024;28;20085;-56
2021/08/18 03:38:53;;;;;;;3.20;1.60;;;21.90;46.30;;;;;;4128887;28;20064;-61
2021/08/18 03:40:55;;;;;;;2.88;1.45;;;22.00;46.30;;;;;;4143795;28;20100;-55
2021/08/18 03:42:57;;;;;;;2.22;1.58;;;21.90;45.60;;;;;;4133091;28;20402;-56
2021/08/18 03:44:59;;;;;;;3.40;1.60;;;21.90;45.40;;;;;;4140794;28;20053;-57
2021/08/18 03:47:01;;;;;;;3.85;1.52;;;21.90;45.60;;;;;;4138666;28;20124;-56
2021/08/18 03:49:03;;;;;;;3.38;1.73;;;21.90;45.30;;;;;;4143007;28;20106;-56
2021/08/18 03:51:06;;;;;;;4.10;1.65;;;21.90;44.90;;;;;;4144200;28;20072;-45
2021/08/18 03:53:08;;;;;;;3.33;1.70;;;21.90;45.00;;;;;;4138449;28;20438;-54
2021/08/18 03:55:12;;;;;;;6.03;1.95;;;21.90;44.20;;;;;;4139128;28;20037;-50
2021/08/18 03:57:14;;;;;;;5.60;1.70;;;21.90;44.10;;;;;;4136296;28;20467;-55
2021/08/18 03:59:16;;;;;;;3.92;1.83;;;21.90;44.50;;;;;;4138187;28;20137;-49
2021/08/18 04:01:18;;;;;;;5.03;1.88;;;21.90;44.60;;;;;;4133588;28;20077;-50
2021/08/18 04:03:21;;;;;;;5.47;1.75;;;22.00;44.90;;;;;;4142497;28;20038;-58
2021/08/18 04:05:23;;;;;;;5.30;2.07;;;22.00;45.00;;;;;;4138900;28;20120;-51
2021/08/18 04:07:25;;;;;;;2.97;1.70;;;22.00;44.80;;;;;;4136208;28;20037;-51
2021/08/18 04:09:27;;;;;;;3.95;1.77;;;22.10;45.10;;;;;;4133342;28;20029;-51
2021/08/18 04:11:29;;;;;;;4.00;1.70;;;22.10;45.00;;;;;;4130088;28;20449;-51
2021/08/18 04:13:32;;;;;;;6.18;1.75;;;22.10;45.20;;;;;;4129410;28;20419;-54
2021/08/18 04:15:38;;;;;;;3.23;1.83;;;22.10;45.10;;;;;;4127498;28;20064;-53
2021/08/18 04:17:40;;;;;;;5.88;2.00;;;22.10;45.00;;;;;;4133147;28;20298;-53
2021/08/18 04:19:42;;;;;;;4.20;1.73;;;22.20;45.00;;;;;;4136455;28;20040;-52
2021/08/18 04:21:44;;;;;;;3.95;1.85;;;22.20;44.80;;;;;;4142358;28;20629;-56
2021/08/18 04:23:46;;;;;;;4.38;1.73;;;22.20;44.70;;;;;;4139167;28;20029;-55
2021/08/18 04:25:48;;;;;;;3.92;1.45;;;22.30;44.60;;;;;;4137538;28;20029;-56
2021/08/18 04:27:51;;;;;;;4.15;1.55;;;22.30;44.50;;;;;;4139044;28;20040;-54
2021/08/18 04:29:53;;;;;;;6.18;1.85;;;22.30;44.50;;;;;;4135757;28;20109;-54
2021/08/18 04:31:57;;;;;;;4.30;1.63;;;22.30;44.40;;;;;;4145347;28;20034;-51
2021/08/18 04:33:59;;;;;;;3.60;1.60;;;22.40;44.30;;;;;;4142112;28;20112;-52
2021/08/18 04:36:01;;;;;;;3.85;1.60;;;22.50;44.30;;;;;;4138212;28;20037;-51
2021/08/18 04:38:03;;;;;;;3.67;1.80;;;22.50;44.10;;;;;;4141074;28;20026;-57
2021/08/18 04:40:11;;;;;;;3.90;1.80;;;22.50;44.10;;;;;;4139017;28;20496;-55
2021/08/18 04:42:13;;;;;;;2.60;1.50;;;22.50;44.10;;;;;;4137352;28;20251;-54
2021/08/18 04:44:15;;;;;;;3.55;1.60;;;22.50;44.00;;;;;;4133738;28;20057;-55
2021/08/18 04:46:18;;;;;;;2.70;1.40;;;22.60;43.90;;;;;;4132431;28;20144;-53
2021/08/18 04:48:20;;;;;;;3.13;1.60;;;22.60;43.80;;;;;;4132905;28;20054;-57
2021/08/18 04:50:22;;;;;;;2.10;1.27;;;22.60;43.80;;;;;;4143297;28;20108;-53
2021/08/18 04:52:24;;;;;;;5.68;1.58;;;22.70;43.70;;;;;;4136911;28;20346;-52
2021/08/18 04:54:26;;;;;;;3.17;1.42;;;22.70;43.70;;;;;;4142155;28;20033;-52
2021/08/18 04:56:28;;;;;;;2.47;1.35;;;22.70;43.70;;;;;;4139574;28;20256;-56
2021/08/18 04:58:31;;;;;;;4.28;1.67;;;22.70;43.60;;;;;;4145666;28;20378;-57
2021/08/18 05:00:33;;;;;;;2.30;1.15;;;22.70;43.60;;;;;;4136089;28;20045;-53
2021/08/18 05:02:36;;;;;;;4.53;1.70;;;22.60;43.60;;;;;;4145103;28;20030;-55
2021/08/18 05:04:38;;;;;;;2.20;1.45;;;22.50;43.70;;;;;;4139471;28;20022;-51
2021/08/18 05:06:40;;;;;;;3.35;1.70;;;22.50;43.70;;;;;;4142407;28;20407;-56
2021/08/18 05:08:42;;;;;;;3.72;1.85;;;22.50;43.80;;;;;;4139799;28;20404;-53
2021/08/18 05:10:44;;;;;;;5.10;1.60;;;22.40;43.80;;;;;;4149863;28;20044;-55
2021/08/18 05:12:46;;;;;;;2.42;1.58;;;22.40;43.90;;;;;;4139517;28;20033;-55
2021/08/18 05:14:49;;;;;;;3.13;1.65;;;22.30;43.90;;;;;;4136272;28;20061;-57
2021/08/18 05:16:51;;;;;;;4.35;1.70;;;22.30;44.10;;;;;;4137638;28;20056;-54
2021/08/18 05:18:53;;;;;;;2.97;1.42;;;22.30;44.10;;;;;;4139027;28;20029;-54
2021/08/18 05:20:55;;;;;;;3.85;1.75;;;22.40;44.30;;;;;;4142141;28;20112;-55
2021/08/18 05:22:57;;;;;;;3.60;1.60;;;22.50;44.20;;;;;;4138405;28;20079;-60
2021/08/18 05:24:59;;;;;;;3.30;2.00;;;22.50;43.80;;;;;;4147479;28;20021;-60
2021/08/18 05:27:01;;;;;;;3.60;1.80;;;22.50;43.30;;;;;;4144219;28;20514;-59
2021/08/18 05:29:04;;;;;;;4.10;1.90;;;22.50;43.00;;;;;;4139387;28;20526;-60
2021/08/18 05:31:06;;;;;;;4.13;2.00;;;22.50;43.00;;;;;;4134527;28;20467;-56
2021/08/18 05:33:08;;;;;;;3.00;1.90;;;22.40;43.00;;;;;;4138368;28;20053;-58
2021/08/18 05:35:13;;;;;;;4.68;2.03;;;22.40;43.60;;;;;;4133715;28;20029;-56
2021/08/18 05:37:15;;;;;;;3.47;1.73;;;22.40;44.90;;;;;;4140356;28;20025;-55
2021/08/18 05:39:17;;;;;;;4.97;2.10;;;22.50;45.80;;;;;;4134017;28;20114;-51
2021/08/18 05:41:19;;;;;;;3.83;1.90;;;22.50;46.00;;;;;;4133544;28;20096;-55
2021/08/18 05:43:22;;;;;;;2.83;1.42;;;22.60;46.50;;;;;;4129664;28;20496;-56
2021/08/18 05:45:24;;;;;;;4.00;1.85;;;22.70;46.80;;;;;;4128359;28;20076;-55
2021/08/18 05:47:26;;;;;;;3.03;1.65;;;22.70;46.80;;;;;;4138747;28;20049;-56
2021/08/18 05:49:28;;;;;;;3.22;1.48;;;22.70;47.00;;;;;;4124938;28;20403;-53
2021/08/18 05:51:30;;;;;;;4.80;1.58;;;22.80;47.40;;;;;;4139478;28;20033;-52
2021/08/18 05:53:32;;;;;;;4.00;1.67;;;22.80;47.20;;;;;;4122419;28;20022;-52
2021/08/18 05:55:34;;;;;;;3.00;1.60;;;22.80;47.00;;;;;;4143648;28;20169;-49
2021/08/18 05:57:36;;;;;;;2.35;1.50;;;22.80;46.90;;;;;;4132237;28;20049;-55
2021/08/18 05:59:38;;;;;;;2.85;1.55;;;22.90;46.90;;;;;;4136169;28;20044;-55
2021/08/18 06:01:40;;;;;;;3.35;1.70;;;22.80;46.80;;;;;;4136776;28;20029;-55
2021/08/18 06:03:44;;;;;;;6.40;1.70;;;22.90;46.70;;;;;;4145064;28;20100;-56
2021/08/18 06:05:46;;;;;;;4.40;1.65;;;22.90;46.90;;;;;;4138711;28;20040;-56
2021/08/18 06:07:48;;;;;;;3.35;1.58;;;22.90;46.90;;;;;;4142197;28;20033;-56
2021/08/18 06:09:50;;;;;;;3.92;1.88;;;22.90;46.90;;;;;;4142954;28;20046;-55
2021/08/18 06:11:52;;;;;;;3.58;1.60;;;22.90;47.40;;;;;;4139832;28;20452;-56
2021/08/18 06:13:54;;;;;;;2.97;1.48;;;22.90;47.00;;;;;;4141476;28;20013;-53
2021/08/18 06:15:57;;;;;;;3.22;1.50;;;22.90;47.10;;;;;;4141507;28;20530;-56
2021/08/18 06:17:59;;;;;;;3.53;1.75;;;22.90;47.00;;;;;;4144630;28;20409;-55
2021/08/18 06:20:02;;;;;;;4.65;1.65;;;22.90;47.10;;;;;;4139185;28;20578;-51
2021/08/18 06:22:05;;;;;;;3.22;1.63;;;22.90;47.00;;;;;;4138029;28;20034;-53
2021/08/18 06:24:28;;;;;;;2.70;1.33;;;22.90;47.00;;;;;;4133367;28;20048;-56
2021/08/18 06:26:30;;;;;;;2.45;1.40;;;22.90;47.00;;;;;;4137553;28;20402;-56
2021/08/18 06:28:34;;;;;;;2.67;1.52;;;22.90;47.00;;;;;;4134659;28;20033;-51
2021/08/18 06:30:36;;;;;;;2.00;1.42;;;22.90;46.80;;;;;;4140362;28;20052;-56
2021/08/18 06:32:38;;;;;;;2.03;1.30;;;22.90;47.00;;;;;;4141278;28;20038;-51
2021/08/18 06:34:40;;;;;;;2.15;1.40;;;22.90;46.80;;;;;;4140100;28;20590;-54
2021/08/18 06:36:43;;;;;;;3.30;1.30;;;22.90;46.80;;;;;;4135600;28;20042;-53
2021/08/18 06:38:45;;;;;;;5.22;1.50;;;22.90;46.80;;;;;;4133913;28;20025;-55
2021/08/18 06:40:47;;;;;;;4.22;1.63;;;22.90;46.80;;;;;;4118494;28;20030;-56
2021/08/18 06:42:49;;;;;;;3.80;1.60;;;22.90;46.90;;;;;;4142771;28;20406;-50
2021/08/18 06:44:51;;;;;;;3.63;1.70;;;22.80;47.10;;;;;;4138173;28;20430;-53
2021/08/18 06:46:53;;;;;;;3.15;1.25;;;22.80;47.10;;;;;;4139365;28;20407;-56
2021/08/18 06:48:55;;;;;;;1.55;1.10;;;22.70;47.20;;;;;;4141927;28;20053;-54
2021/08/18 06:50:57;;;;;;;3.47;1.50;;;22.70;47.30;;;;;;4139383;28;20494;-56
2021/08/18 06:52:59;;;;;;;2.22;1.42;;;22.70;47.20;;;;;;4143102;28;20022;-55
2021/08/18 06:55:01;;;;;;;3.95;1.60;;;22.70;47.20;;;;;;4122247;28;20465;-57
2021/08/18 06:57:04;;;;;;;3.85;1.40;;;22.70;47.20;;;;;;4141938;28;20096;-54
2021/08/18 06:59:06;;;;;;;2.85;1.25;;;22.70;47.30;;;;;;4140879;28;20519;-56
2021/08/18 07:01:08;;;;;;;3.05;1.60;;;22.60;47.20;;;;;;4143909;28;20099;-55
2021/08/18 07:03:10;;;;;;;3.10;1.25;;;22.60;47.30;;;;;;4140104;28;20573;-56
2021/08/18 07:05:13;;;;;;;2.05;1.30;;;22.60;47.30;;;;;;4139453;28;20022;-49
2021/08/18 07:07:18;;;;;;;3.75;1.63;;;22.60;47.30;;;;;;4136383;28;20494;-48
2021/08/18 07:09:20;;;;;;;2.85;1.58;;;22.60;47.30;;;;;;4139205;28;20022;-57
2021/08/18 07:11:22;;;;;;;2.55;1.45;;;22.60;47.30;;;;;;4121946;28;20045;-54
2021/08/18 07:13:24;;;;;;;3.95;1.40;;;22.50;47.50;;;;;;4120044;28;20113;-56
2021/08/18 07:15:26;;;;;;;2.00;1.10;;;22.50;47.60;;;;;;4111691;28;20061;-56
2021/08/18 07:17:28;;;;;;;3.70;1.50;;;22.50;47.60;;;;;;4106158;28;20624;-56
2021/08/18 07:19:30;;;;;;;2.10;1.40;;;22.50;47.60;;;;;;4096380;28;20149;-57
2021/08/18 07:21:33;;;;;;;3.75;1.83;;;22.50;47.70;;;;;;4107585;28;20123;-55
2021/08/18 07:23:35;;;;;;;2.72;1.60;;;22.40;47.60;;;;;;4109630;28;20481;-57
2021/08/18 07:25:37;;;;;;;2.40;1.42;;;22.40;47.60;;;;;;4105401;28;20045;-54
2021/08/18 07:27:39;;;;;;;3.30;1.25;;;22.40;47.70;;;;;;4114327;28;20027;-50
2021/08/18 07:29:42;;;;;;;3.67;1.60;;;22.40;47.80;;;;;;4114482;28;20064;-54
2021/08/18 07:31:44;;;;;;;3.83;1.60;;;22.40;47.80;;;;;;4119165;28;20384;-55
2021/08/18 07:33:46;;;;;;;5.78;1.58;;;22.30;47.80;;;;;;4106706;28;20034;-56
2021/08/18 07:35:48;;;;;;;3.30;1.63;;;22.30;47.70;;;;;;4117128;28;20115;-52
2021/08/18 07:37:50;;;;;;;2.22;1.38;;;22.30;47.80;;;;;;4119812;28;20022;-52
2021/08/18 07:39:54;;;;;;;1.90;1.20;;;22.30;47.80;;;;;;4119073;28;20038;-54
2021/08/18 07:41:56;;;;;;;2.85;1.38;;;22.30;47.80;;;;;;4119044;28;20263;-54
2021/08/18 07:43:58;;;;;;;4.18;1.50;;;22.20;47.80;;;;;;4118758;28;20026;-52
2021/08/18 07:46:01;;;;;;;3.03;1.48;;;22.20;47.50;;;;;;4120322;28;20019;-52
2021/08/18 07:48:03;;;;;;;2.05;1.20;;;22.20;47.40;;;;;;4117343;28;20037;-56
2021/08/18 07:50:06;;;;;;;2.10;1.40;;;22.20;47.20;;;;;;4124632;28;20097;-55
2021/08/18 07:52:08;;;;;;;;;;;22.20;47.10;;;;;;4126259;28;20038;-51
2021/08/18 07:54:10;;;;;;;1.38;1.10;;;22.10;47.00;;;;;;4125323;28;20638;-56
2021/08/18 07:56:12;;;;;;;3.28;1.50;;;22.10;46.90;;;;;;4129449;28;20108;-55
2021/08/18 07:58:14;;;;;;;1.63;1.30;;;22.10;46.90;;;;;;4127234;28;20026;-56
2021/08/18 08:00:16;;;;;;;3.35;1.88;;;22.00;46.90;;;;;;4121480;28;20461;-51
2021/08/18 08:02:22;;;;;;;2.20;1.60;;;22.00;47.10;;;;;;4123885;28;20085;-55
2021/08/18 08:04:25;;;;;;;2.65;1.55;;;22.00;47.30;;;;;;4124138;28;20108;-47
2021/08/18 08:06:27;;;;;;;2.42;1.45;;;22.00;47.60;;;;;;4120573;28;20014;-57
2021/08/18 08:08:29;;;;;;;2.90;1.67;;;22.00;47.80;;;;;;4124314;28;20042;-50
2021/08/18 08:10:31;;;;;;;4.32;1.65;;;22.00;48.00;;;;;;4131571;28;20111;-53
2021/08/18 08:12:34;;;;;;;2.88;1.42;;;22.00;48.00;;;;;;4138352;28;20065;-54
2021/08/18 08:14:36;;;;;;;;;;;22.00;48.10;;;;;;4137694;28;20129;-55
2021/08/18 08:16:39;;;;;;;2.28;1.50;;;22.00;48.10;;;;;;4141439;28;19913;-49
2021/08/18 08:18:41;;;;;;;3.03;1.42;;;22.00;48.20;;;;;;4139854;28;20026;-50
2021/08/18 08:20:43;;;;;;;2.35;1.30;;;22.00;48.30;;;;;;4132719;28;20030;-57
2021/08/18 08:22:45;;;;;;;4.72;1.40;;;22.00;48.30;;;;;;4142501;28;20041;-55
2021/08/18 08:24:47;;;;;;;3.13;1.60;;;22.00;48.40;;;;;;4139753;28;20047;-55
2021/08/18 08:26:49;;;;;;;3.67;1.65;;;21.90;48.50;;;;;;4138850;28;20066;-53
2021/08/18 08:28:51;;;;;;;3.25;1.55;;;21.90;48.50;;;;;;4137766;28;20029;-55
2021/08/18 08:30:53;;;;;;;2.72;1.45;;;21.90;48.50;;;;;;4143809;28;20455;-53
2021/08/18 08:32:55;;;;;;;2.28;1.23;;;21.90;48.60;;;;;;4139993;28;20032;-53
2021/08/18 08:34:57;;;;;;;2.92;1.52;;;21.90;48.70;;;;;;4140379;28;20112;-59
2021/08/18 08:36:59;;;;;;;2.55;1.60;;;21.90;48.50;;;;;;4132708;28;20484;-57
2021/08/18 08:39:02;;;;;;;4.20;1.60;;;21.90;48.40;;;;;;4125298;28;20263;-57
2021/08/18 08:41:07;;;;;;;1.42;1.20;;;21.90;48.40;;;;;;4131898;28;20205;-57
2021/08/18 08:43:12;;;;;;;2.08;1.40;;;21.90;48.50;;;;;;4133457;28;20065;-59
2021/08/18 08:45:15;;;;;;;4.38;1.90;;;21.80;48.40;;;;;;4134824;28;20026;-58
2021/08/18 08:47:18;;;;;;;3.30;1.30;;;21.90;48.40;;;;;;4132291;28;20121;-58
2021/08/18 08:49:22;;;;;;;3.95;1.45;;;21.80;48.40;;;;;;4131032;28;20387;-56
2021/08/18 08:51:24;;;;;;;2.03;1.55;;;21.80;48.40;;;;;;4129732;28;20573;-57
2021/08/18 08:53:28;;;;;;;3.15;1.58;;;21.80;48.30;;;;;;4130896;28;20116;-57
2021/08/18 08:55:31;;;;;;;3.28;1.60;;;21.80;48.40;;;;;;4136081;28;20540;-58
2021/08/18 08:57:52;;;;;;;5.38;1.48;;;21.80;48.60;;;;;;4132726;28;20397;-58
2021/08/18 08:59:54;;;;;;;2.30;1.42;;;21.80;48.70;;;;;;4132988;28;20398;-58
2021/08/18 09:02:12;;;;;;;3.25;1.65;;;21.80;48.80;;;;;;4132364;28;20490;-60
2021/08/18 09:04:30;;;;;;;5.78;2.03;;;21.70;48.60;;;;;;4109286;28;20069;-57
2021/08/18 09:06:34;;;;;;;1.58;1.23;;;21.70;48.60;;;;;;4133421;28;20562;-59
2021/08/18 09:08:54;;;;;;;3.60;1.50;;;21.70;48.80;;;;;;4135789;28;20029;-59
2021/08/18 09:11:12;;;;;;;4.22;1.60;;;21.70;48.80;;;;;;4132169;28;20052;-57
2021/08/18 09:13:18;;;;;;;7.40;1.80;;;21.70;48.80;;;;;;4132554;28;20069;-58
2021/08/18 09:15:25;;;;;;;3.85;1.38;;;21.60;48.70;;;;;;4136240;28;20565;-59
2021/08/18 09:17:32;;;;;;;3.72;1.90;;;21.60;48.60;;;;;;4136362;28;20068;-57
2021/08/18 09:19:34;;;;;;;1.92;1.42;;;21.60;48.70;;;;;;4133210;28;20573;-59
2021/08/18 09:21:41;;;;;;;2.45;1.40;;;21.50;48.60;;;;;;4135168;28;20144;-59
2021/08/18 09:23:44;;;;;;;4.10;1.92;;;21.50;48.70;;;;;;4132487;28;20018;-57
2021/08/18 09:25:46;;;;;;;2.35;1.55;;;21.50;48.70;;;;;;4135130;28;20022;-60
2021/08/18 09:28:14;;;;;;;2.70;1.70;;;21.50;48.80;;;;;;4133974;28;20101;-60
2021/08/18 09:30:24;;;;;;;3.10;1.50;;;21.50;48.80;;;;;;4128773;28;20033;-57
2021/08/18 09:32:32;;;;;;;2.22;1.40;;;21.50;48.70;;;;;;4133969;28;20567;-59
2021/08/18 09:34:34;;;;;;;1.45;1.27;;;21.50;48.90;;;;;;4132195;28;20034;-58
2021/08/18 09:36:36;;;;;;;2.70;1.50;;;21.50;48.80;;;;;;4117306;28;20110;-57
2021/08/18 09:38:39;;;;;;;2.58;1.80;;;21.40;48.80;;;;;;4133776;28;20109;-57
2021/08/18 09:40:43;;;;;;;;;;;21.40;48.90;;;;;;4131986;28;20409;-54
2021/08/18 09:42:46;;;;;;;3.00;1.60;;;21.40;49.00;;;;;;4133946;28;20367;-58
2021/08/18 09:44:48;;;;;;;2.63;1.35;;;21.40;49.20;;;;;;4135090;28;20565;-57
2021/08/18 09:47:06;;;;;;;3.90;1.65;;;21.40;49.20;;;;;;4133150;28;20631;-56
2021/08/18 09:49:10;;;;;;;2.40;1.55;;;21.40;49.20;;;;;;4132189;28;20099;-57
2021/08/18 09:51:14;;;;;;;4.43;1.70;;;21.40;49.30;;;;;;4132217;28;20103;-56
2021/08/18 09:53:26;;;;;;;2.72;1.67;;;21.30;49.60;;;;;;4136293;28;20026;-59
2021/08/18 09:55:28;;;;;;;3.80;1.80;;;21.30;49.40;;;;;;4128021;28;20046;-57
2021/08/18 09:57:31;;;;;;;2.38;1.50;;;21.30;49.60;;;;;;4135013;28;20048;-56
2021/08/18 09:59:36;;;;;;;3.47;1.95;;;21.30;49.60;;;;;;4134474;28;20485;-58
2021/08/18 10:01:40;;;;;;;1.83;1.50;;;21.30;49.50;;;;;;4132893;28;20091;-56
2021/08/18 10:03:50;;;;;;;2.38;1.70;;;21.30;49.60;;;;;;4127506;28;20048;-56
2021/08/18 10:05:55;;;;;;;2.90;2.03;;;21.30;49.10;;;;;;4137996;28;20115;-48
2021/08/18 10:07:57;;;;;;;2.85;1.85;;;21.20;49.10;;;;;;4134894;28;20160;-54
2021/08/18 10:10:04;;;;;;;3.63;1.92;;;21.20;49.20;;;;;;4134556;28;20058;-57
2021/08/18 10:12:06;;;;;;;3.00;1.85;;;21.20;49.20;;;;;;4135629;28;20505;-58
2021/08/18 10:14:10;;;;;;;2.70;1.67;;;21.20;49.40;;;;;;4130668;28;20045;-55
2021/08/18 10:16:13;;;;;;;;;;;21.20;49.40;;;;;;4097288;28;20512;-48
2021/08/18 10:18:39;;;;;;;2.50;1.67;;;21.20;49.30;;;;;;4133216;28;19999;-55
2021/08/18 10:20:41;;;;;;;4.07;1.95;;;;;;;;;;4128115;28;20091;-60
2021/08/18 10:22:44;;;;;;;4.53;2.00;;;;;;;;;;4138102;28;20053;-50
2021/08/18 10:24:47;;;;;;;2.83;1.83;;;;;;;;;;4133125;28;20801;-53
2021/08/18 10:26:50;;;;;;;5.53;1.93;;;;;;;;;;4139562;28;20022;-55
2021/08/18 10:29:15;;;;;;;4.97;2.08;;;;;;;;;;4131012;28;20357;-54
2021/08/18 10:31:37;;;;;;;2.90;1.80;;;;;;;;;;4130351;28;20046;-55
2021/08/18 10:33:54;;;;;;;2.95;1.98;;;;;;;;;;4132718;28;20030;-54
2021/08/18 10:35:57;;;;;;;2.92;2.03;;;;;;;;;;4133475;28;20422;-55
2021/08/18 10:38:17;;;;;;;2.50;1.83;;;;;;;;;;4132652;28;20030;-55
2021/08/18 10:40:20;;;;;;;3.17;2.00;;;;;;;;;;4132166;28;20109;-50
2021/08/18 10:42:37;;;;;;;3.27;2.13;;;;;;;;;;4133893;28;20036;-56
2021/08/18 10:44:39;;;;;;;3.85;2.47;;;;;;;;;;4131104;28;20038;-52
2021/08/18 10:47:11;;;;;;;3.47;2.20;;;;;;;;;;4133642;28;20108;-48
2021/08/18 10:49:13;;;;;;;2.72;1.98;;;;;;;;;;4112483;28;20045;-53
2021/08/18 10:51:35;;;;;;;3.00;2.13;;;;;;;;;;4133757;28;20038;-47